createdAt,value
2022-09-24T00:01:32.069Z,101129.03
2022-09-24T00:04:02.984Z,101126.31
2022-09-24T00:06:34.754Z,101125.41
2022-09-24T00:09:03.802Z,101117.38
2022-09-24T00:11:32.089Z,101109.38
2022-09-24T00:14:00.716Z,101115.66
2022-09-24T00:16:33.785Z,101115.66
2022-09-24T00:19:03.206Z,101121.09
2022-09-24T00:21:33.494Z,101123.00
2022-09-24T00:24:05.935Z,101119.38
2022-09-24T00:26:53.244Z,101124.78
2022-09-24T00:29:22.898Z,101118.50
2022-09-24T00:31:52.067Z,101122.13
2022-09-24T00:34:20.203Z,101124.00
2022-09-24T00:36:48.396Z,101128.50
2022-09-24T00:39:17.927Z,101121.38
2022-09-24T00:41:47.124Z,101122.22
2022-09-24T00:44:54.923Z,101126.66
2022-09-24T00:47:36.024Z,101124.06
2022-09-24T00:50:17.301Z,101116.03
2022-09-24T00:52:49.774Z,101120.47
2022-09-24T00:55:19.843Z,101114.16
2022-09-24T00:57:50.085Z,101118.75
2022-09-24T01:00:18.012Z,101109.81
2022-09-24T01:02:49.837Z,101113.41
2022-09-24T01:05:17.893Z,101110.72
2022-09-24T01:07:48.152Z,101111.66
2022-09-24T01:10:37.079Z,101109.84
2022-09-24T01:13:14.938Z,101108.03
2022-09-24T01:15:49.986Z,101109.88
2022-09-24T01:18:28.151Z,101114.38
2022-09-24T01:21:16.893Z,101103.63
2022-09-24T01:23:58.751Z,101102.72
2022-09-24T01:26:42.451Z,101105.44
2022-09-24T01:29:42.320Z,101097.34
2022-09-24T01:32:18.296Z,101086.56
2022-09-24T01:34:50.185Z,101091.94
2022-09-24T01:37:22.285Z,101091.03
2022-09-24T01:39:52.565Z,101087.44
2022-09-24T01:42:23.018Z,101081.13
2022-09-24T01:44:52.459Z,101079.41
2022-09-24T01:47:25.555Z,101076.72
2022-09-24T01:49:53.994Z,101076.75
2022-09-24T01:52:27.215Z,101069.63
2022-09-24T01:54:57.623Z,101072.34
2022-09-24T01:57:30.012Z,101073.28
2022-09-24T02:00:06.392Z,101074.16
2022-09-24T02:02:40.642Z,101063.41
2022-09-24T02:05:15.976Z,101054.50
2022-09-24T02:07:50.621Z,101058.09
2022-09-24T02:10:21.310Z,101057.25
2022-09-24T02:12:53.578Z,101051.00
2022-09-24T02:15:32.204Z,101056.41
2022-09-24T02:18:04.944Z,101057.31
2022-09-24T02:20:35.442Z,101046.59
2022-09-24T02:23:05.801Z,101046.66
2022-09-24T02:25:39.300Z,101044.00
2022-09-24T02:28:06.968Z,101034.16
2022-09-24T02:30:41.351Z,101045.91
2022-09-24T02:33:31.725Z,101045.03
2022-09-24T02:35:58.852Z,101042.38
2022-09-24T02:38:26.505Z,101047.81
2022-09-24T02:40:55.212Z,101037.03
2022-09-24T02:43:22.929Z,101040.63
2022-09-24T02:45:51.938Z,101035.34
2022-09-24T02:48:19.623Z,101035.38
2022-09-24T02:50:47.359Z,101032.72
2022-09-24T02:53:15.006Z,101035.38
2022-09-24T02:55:42.988Z,101030.97
2022-09-24T02:58:10.633Z,101030.06
2022-09-24T03:00:38.764Z,101027.34
2022-09-24T03:03:07.847Z,101022.81
2022-09-24T03:05:35.489Z,101026.44
2022-09-24T03:08:03.220Z,101014.72
2022-09-24T03:10:31.242Z,101018.41
2022-09-24T03:12:59.037Z,101019.25
2022-09-24T03:15:26.769Z,101015.69
2022-09-24T03:17:54.385Z,101017.44
2022-09-24T03:20:24.186Z,101010.31
2022-09-24T03:22:52.492Z,101012.97
2022-09-24T03:25:20.543Z,101016.56
2022-09-24T03:27:48.231Z,101014.75
2022-09-24T03:30:33.330Z,101007.59
2022-09-24T03:33:00.985Z,101008.50
2022-09-24T03:35:29.945Z,101008.50
2022-09-24T03:37:57.573Z,101005.81
2022-09-24T03:40:25.818Z,101004.94
2022-09-24T03:42:53.484Z,101003.16
2022-09-24T03:45:21.138Z,100997.91
2022-09-24T03:47:48.707Z,100993.38
2022-09-24T03:50:17.244Z,100997.00
2022-09-24T03:52:46.228Z,100991.66
2022-09-24T03:55:14.973Z,100993.47
2022-09-24T03:57:42.652Z,100991.69
2022-09-24T04:00:12.085Z,100987.25
2022-09-24T04:02:40.629Z,100981.91
2022-09-24T04:05:08.837Z,100977.47
2022-09-24T04:07:36.424Z,100978.38
2022-09-24T04:10:05.964Z,100977.47
2022-09-24T04:12:33.585Z,100978.38
2022-09-24T04:15:02.521Z,100985.59
2022-09-24T04:17:31.428Z,100976.66
2022-09-24T04:19:59.060Z,100978.47
2022-09-24T04:22:27.842Z,100979.38
2022-09-24T04:24:55.687Z,100973.97
2022-09-24T04:27:24.849Z,100982.03
2022-09-24T04:29:54.161Z,100982.94
2022-09-24T04:32:22.473Z,100982.03
2022-09-24T04:34:50.131Z,100977.53
2022-09-24T04:37:17.819Z,100976.59
2022-09-24T04:39:45.610Z,100976.59
2022-09-24T04:42:18.055Z,100969.44
2022-09-24T04:44:47.760Z,100971.31
2022-09-24T04:47:15.944Z,100974.09
2022-09-24T04:49:45.732Z,100972.28
2022-09-24T04:52:14.899Z,100976.84
2022-09-24T04:54:46.879Z,100974.16
2022-09-24T04:57:15.092Z,100976.84
2022-09-24T04:59:43.150Z,100970.56
2022-09-24T05:02:12.367Z,100975.94
2022-09-24T05:04:40.037Z,100975.06
2022-09-24T05:07:07.661Z,100984.00
2022-09-24T05:09:35.263Z,100978.69
2022-09-24T05:12:03.511Z,100981.38
2022-09-24T05:14:31.252Z,100984.94
2022-09-24T05:16:58.971Z,100979.56
2022-09-24T05:19:28.132Z,100984.94
2022-09-24T05:21:55.770Z,100984.03
2022-09-24T05:24:23.464Z,100979.56
2022-09-24T05:27:08.440Z,100981.34
2022-09-24T05:29:36.406Z,100986.72
2022-09-24T05:32:06.329Z,100987.63
2022-09-24T05:34:35.897Z,100984.94
2022-09-24T05:37:04.079Z,100987.66
2022-09-24T05:39:34.090Z,101005.59
2022-09-24T05:42:03.641Z,100992.19
2022-09-24T05:44:31.293Z,101002.03
2022-09-24T05:46:59.582Z,100993.03
2022-09-24T05:49:27.265Z,100999.38
2022-09-24T05:51:56.840Z,101004.72
2022-09-24T05:54:24.535Z,101005.59
2022-09-24T05:56:52.155Z,101004.63
2022-09-24T05:59:19.847Z,101001.03
2022-09-24T06:01:49.117Z,100999.19
2022-09-24T06:04:16.977Z,101000.06
2022-09-24T06:06:45.239Z,101000.97
2022-09-24T06:09:14.645Z,100998.28
2022-09-24T06:11:42.485Z,101000.91
2022-09-24T06:14:11.204Z,101003.50
2022-09-24T06:16:38.927Z,100999.00
2022-09-24T06:19:06.635Z,100998.97
2022-09-24T06:21:34.237Z,101001.63
2022-09-24T06:24:03.076Z,101007.81
2022-09-24T06:26:33.065Z,101007.75
2022-09-24T06:29:04.679Z,101005.03
2022-09-24T06:31:34.199Z,101004.94
2022-09-24T06:34:02.648Z,101004.00
2022-09-24T06:36:30.275Z,101007.50
2022-09-24T06:38:58.540Z,101005.69
2022-09-24T06:41:26.187Z,101004.81
2022-09-24T06:43:56.170Z,101017.31
2022-09-24T06:46:25.725Z,101022.59
2022-09-24T06:48:54.784Z,101015.31
2022-09-24T06:51:22.503Z,101017.97
2022-09-24T06:53:52.268Z,101020.66
2022-09-24T06:56:19.938Z,101022.41
2022-09-24T06:58:47.609Z,101023.22
2022-09-24T07:01:16.729Z,101023.97
2022-09-24T07:03:44.617Z,101022.94
2022-09-24T07:06:12.232Z,101025.56
2022-09-24T07:08:39.879Z,101030.72
2022-09-24T07:11:07.711Z,101025.22
2022-09-24T07:13:35.359Z,101030.44
2022-09-24T07:16:03.635Z,101028.50
2022-09-24T07:18:32.762Z,101025.63
2022-09-24T07:21:00.380Z,101032.69
2022-09-24T07:23:28.058Z,101035.25
2022-09-24T07:25:57.218Z,101036.03
2022-09-24T07:28:24.827Z,101035.00
2022-09-24T07:30:57.667Z,101032.84
2022-09-24T07:33:25.511Z,101041.59
2022-09-24T07:35:54.495Z,101038.72
2022-09-24T07:38:22.239Z,101039.28
2022-09-24T07:40:50.142Z,101038.28
2022-09-24T07:43:17.884Z,101042.63
2022-09-24T07:45:46.723Z,101038.09
2022-09-24T07:48:15.769Z,101044.25
2022-09-24T07:50:44.016Z,101052.28
2022-09-24T07:53:14.211Z,101044.97
2022-09-24T07:55:41.971Z,101046.66
2022-09-24T07:58:13.499Z,101047.56
2022-09-24T08:00:41.383Z,101050.09
2022-09-24T08:03:09.054Z,101050.78
2022-09-24T08:05:37.178Z,101054.09
2022-09-24T08:08:04.823Z,101055.56
2022-09-24T08:10:33.862Z,101052.50
2022-09-24T08:13:03.332Z,101057.44
2022-09-24T08:16:01.788Z,101051.78
2022-09-24T08:18:19.694Z,101054.31
2022-09-24T08:20:47.341Z,101051.56
2022-09-24T08:23:15.035Z,101056.81
2022-09-24T08:25:44.080Z,101058.53
2022-09-24T08:28:12.203Z,101060.25
2022-09-24T08:30:40.905Z,101061.88
2022-09-24T08:33:08.921Z,101061.78
2022-09-24T08:35:37.013Z,101061.66
2022-09-24T08:38:04.651Z,101063.34
2022-09-24T08:40:37.215Z,101060.69
2022-09-24T08:43:18.629Z,101067.00
2022-09-24T08:46:07.899Z,101069.78
2022-09-24T08:48:38.799Z,101072.47
2022-09-24T08:51:12.601Z,101067.91
2022-09-24T08:53:48.699Z,101064.25
2022-09-24T08:56:19.970Z,101056.94
2022-09-24T08:58:54.014Z,101061.44
2022-09-24T09:01:32.596Z,101068.53
2022-09-24T09:04:05.319Z,101073.75
2022-09-24T09:06:51.737Z,101074.44
2022-09-24T09:09:22.572Z,101066.34
2022-09-24T09:11:53.001Z,101063.47
2022-09-24T09:14:31.434Z,101064.16
2022-09-24T09:17:03.901Z,101061.09
2022-09-24T09:19:35.171Z,101071.72
2022-09-24T09:22:08.458Z,101066.03
2022-09-24T09:24:42.735Z,101065.84
2022-09-24T09:27:14.746Z,101066.47
2022-09-24T09:29:46.137Z,101077.16
2022-09-24T09:32:28.878Z,101074.44
2022-09-24T09:35:04.952Z,101069.91
2022-09-24T09:37:43.804Z,101068.31
2022-09-24T09:40:31.684Z,101053.81
2022-09-24T09:43:02.915Z,101076.19
2022-09-24T09:45:37.928Z,101080.56
2022-09-24T09:48:06.957Z,101069.78
2022-09-24T09:50:40.759Z,101062.63
2022-09-24T09:53:20.216Z,101067.88
2022-09-24T09:55:53.692Z,101065.94
2022-09-24T09:58:24.868Z,101068.56
2022-09-24T10:01:03.611Z,101071.41
2022-09-24T10:03:34.346Z,101069.38
2022-09-24T10:06:04.212Z,101068.88
2022-09-24T10:08:32.886Z,101071.31
2022-09-24T10:11:03.319Z,101069.56
2022-09-24T10:13:32.528Z,101069.44
2022-09-24T10:16:04.666Z,101069.09
2022-09-24T10:18:37.111Z,101061.72
2022-09-24T10:21:12.100Z,101072.41
2022-09-24T10:23:42.586Z,101069.81
2022-09-24T10:26:11.307Z,101069.69
2022-09-24T10:29:03.994Z,101075.03
2022-09-24T10:31:36.463Z,101071.28
2022-09-24T10:34:17.964Z,101081.19
2022-09-24T10:36:51.435Z,101074.13
2022-09-24T10:39:19.166Z,101075.03
2022-09-24T10:41:48.104Z,101076.69
2022-09-24T10:44:16.541Z,101075.75
2022-09-24T10:46:58.919Z,101080.31
2022-09-24T10:49:41.594Z,101076.81
2022-09-24T10:52:13.927Z,101074.13
2022-09-24T10:54:56.199Z,101078.16
2022-09-24T10:57:34.353Z,101074.03
2022-09-24T11:00:12.611Z,101073.00
2022-09-24T11:03:07.145Z,101076.38
2022-09-24T11:05:38.282Z,101075.13
2022-09-24T11:08:20.145Z,101074.97
2022-09-24T11:11:14.395Z,101079.31
2022-09-24T11:13:51.565Z,101069.28
2022-09-24T11:16:38.967Z,101075.44
2022-09-24T11:19:22.069Z,101072.13
2022-09-24T11:22:04.241Z,101076.09
2022-09-24T11:24:48.632Z,101069.91
2022-09-24T11:27:38.359Z,101073.31
2022-09-24T11:30:13.116Z,101074.63
2022-09-24T11:33:01.294Z,101078.78
2022-09-24T11:35:44.872Z,101075.81
2022-09-24T11:38:18.011Z,101071.03
2022-09-24T11:41:10.214Z,101068.06
2022-09-24T11:44:06.021Z,101063.38
2022-09-24T11:46:48.019Z,101063.53
2022-09-24T11:49:34.736Z,101065.75
2022-09-24T11:52:11.183Z,101064.09
2022-09-24T11:54:44.733Z,101073.31
2022-09-24T11:57:17.079Z,101068.00
2022-09-24T11:59:49.759Z,101065.25
2022-09-24T12:02:24.976Z,101062.66
2022-09-24T12:04:59.086Z,101066.31
2022-09-24T12:07:35.379Z,101061.84
2022-09-24T12:10:08.381Z,101067.75
2022-09-24T12:12:41.538Z,101064.16
2022-09-24T12:15:18.382Z,101072.41
2022-09-24T12:17:52.342Z,101070.16
2022-09-24T12:20:24.538Z,101063.34
2022-09-24T12:22:59.938Z,101057.81
2022-09-24T12:25:30.446Z,101059.06
2022-09-24T12:28:00.271Z,101062.03
2022-09-24T12:30:53.784Z,101053.03
2022-09-24T12:33:30.109Z,101052.78
2022-09-24T12:36:16.058Z,101053.50
2022-09-24T12:38:48.894Z,101051.78
2022-09-24T12:41:35.940Z,101047.44
2022-09-24T12:44:18.319Z,101053.63
2022-09-24T12:46:53.189Z,101046.56
2022-09-24T12:49:31.054Z,101047.44
2022-09-24T12:52:01.234Z,101047.69
2022-09-24T12:54:32.036Z,101051.47
2022-09-24T12:57:08.259Z,101051.53
2022-09-24T12:59:46.652Z,101053.66
2022-09-24T13:02:20.985Z,101057.25
2022-09-24T13:05:04.990Z,101056.50
2022-09-24T13:07:35.662Z,101050.03
2022-09-24T13:10:23.309Z,101051.97
2022-09-24T13:12:51.902Z,101059.91
2022-09-24T13:15:28.556Z,101048.94
2022-09-24T13:18:24.072Z,101053.56
2022-09-24T13:21:01.463Z,101054.03
2022-09-24T13:23:35.331Z,101048.50
2022-09-24T13:26:06.211Z,101045.78
2022-09-24T13:28:42.632Z,101045.84
2022-09-24T13:31:20.376Z,101046.47
2022-09-24T13:33:52.387Z,101043.34
2022-09-24T13:36:26.963Z,101040.31
2022-09-24T13:39:00.218Z,101040.09
2022-09-24T13:41:41.992Z,101038.84
2022-09-24T13:44:18.155Z,101034.69
2022-09-24T13:46:48.645Z,101043.59
2022-09-24T13:49:19.806Z,101038.28
2022-09-24T13:51:57.587Z,101044.19
2022-09-24T13:54:34.094Z,101046.13
2022-09-24T13:57:16.676Z,101050.47
2022-09-24T13:59:44.292Z,101042.44
2022-09-24T14:02:25.391Z,101046.06
2022-09-24T14:04:58.701Z,101045.13
2022-09-24T14:07:28.576Z,101044.53
2022-09-24T14:10:05.096Z,101046.38
2022-09-24T14:12:34.165Z,101042.88
2022-09-24T14:15:04.471Z,101039.09
2022-09-24T14:17:32.073Z,101046.63
2022-09-24T14:20:00.442Z,101045.63
2022-09-24T14:22:35.404Z,101039.56
2022-09-24T14:25:08.097Z,101045.47
2022-09-24T14:27:42.014Z,101036.16
2022-09-24T14:30:19.788Z,101048.94
2022-09-24T14:32:53.708Z,101043.97
2022-09-24T14:35:29.596Z,101049.56
2022-09-24T14:38:04.298Z,101043.72
2022-09-24T14:40:41.939Z,101048.41
2022-09-24T14:43:19.405Z,101051.97
2022-09-24T14:45:48.965Z,101038.00
2022-09-24T14:48:21.777Z,101045.41
2022-09-24T14:50:49.479Z,101052.97
2022-09-24T14:53:23.663Z,101047.72
2022-09-24T14:55:51.783Z,101054.00
2022-09-24T14:58:34.909Z,101054.13
2022-09-24T15:01:05.449Z,101061.69
2022-09-24T15:03:39.900Z,101055.88
2022-09-24T15:06:18.564Z,101065.38
2022-09-24T15:08:53.846Z,101053.78
2022-09-24T15:11:21.567Z,101066.56
2022-09-24T15:14:00.105Z,101058.56
2022-09-24T15:16:31.808Z,101057.59
2022-09-24T15:19:14.141Z,101057.47
2022-09-24T15:21:41.860Z,101053.13
2022-09-24T15:24:09.978Z,101052.25
2022-09-24T15:26:40.481Z,101056.69
2022-09-24T15:29:16.575Z,101053.97
2022-09-24T15:31:44.345Z,101060.19
2022-09-24T15:34:14.456Z,101063.69
2022-09-24T15:36:46.037Z,101060.19
2022-09-24T15:39:13.771Z,101063.88
2022-09-24T15:41:41.416Z,101064.91
2022-09-24T15:44:29.723Z,101072.41
2022-09-24T15:46:59.179Z,101067.06
2022-09-24T15:49:26.831Z,101066.91
2022-09-24T15:51:59.244Z,101070.84
2022-09-24T15:54:26.758Z,101070.19
2022-09-24T15:56:54.477Z,101074.84
2022-09-24T15:59:24.249Z,101074.03
2022-09-24T16:01:55.257Z,101068.75
2022-09-24T16:04:22.910Z,101067.03
2022-09-24T16:06:50.646Z,101062.69
2022-09-24T16:09:18.305Z,101065.66
2022-09-24T16:11:46.774Z,101068.41
2022-09-24T16:14:14.455Z,101069.22
2022-09-24T16:16:43.546Z,101073.91
2022-09-24T16:19:12.374Z,101075.72
2022-09-24T16:21:40.252Z,101084.91
2022-09-24T16:24:07.971Z,101073.50
2022-09-24T16:26:35.675Z,101082.38
2022-09-24T16:29:04.016Z,101086.75
2022-09-24T16:31:31.713Z,101088.63
2022-09-24T16:34:00.983Z,101084.13
2022-09-24T16:36:28.631Z,101083.44
2022-09-24T16:38:57.648Z,101089.78
2022-09-24T16:41:25.243Z,101094.63
2022-09-24T16:43:56.894Z,101094.69
2022-09-24T16:46:24.814Z,101093.72
2022-09-24T16:48:52.573Z,101096.38
2022-09-24T16:51:22.075Z,101103.59
2022-09-24T16:53:51.281Z,101096.38
2022-09-24T16:56:18.926Z,101098.25
2022-09-24T16:58:47.529Z,101093.91
2022-09-24T17:01:16.678Z,101094.34
2022-09-24T17:03:46.541Z,101095.34
2022-09-24T17:06:18.557Z,101102.47
2022-09-24T17:09:04.873Z,101102.81
2022-09-24T17:11:32.612Z,101100.06
2022-09-24T17:14:01.148Z,101102.72
2022-09-24T17:16:30.351Z,101104.59
2022-09-24T17:18:58.170Z,101106.47
2022-09-24T17:21:25.958Z,101106.56
2022-09-24T17:23:54.981Z,101106.88
2022-09-24T17:26:23.451Z,101108.78
2022-09-24T17:28:53.343Z,101107.09
2022-09-24T17:31:22.864Z,101115.03
2022-09-24T17:33:59.301Z,101105.94
2022-09-24T17:36:28.206Z,101107.66
2022-09-24T17:39:01.470Z,101109.47
2022-09-24T17:41:30.793Z,101121.34
2022-09-24T17:44:00.491Z,101119.53
2022-09-24T17:46:32.345Z,101118.47
2022-09-24T17:49:03.235Z,101118.78
2022-09-24T17:51:48.056Z,101118.00
2022-09-24T17:54:21.449Z,101118.00
2022-09-24T17:56:51.984Z,101119.78
2022-09-24T17:59:26.953Z,101119.88
2022-09-24T18:02:11.612Z,101123.44
2022-09-24T18:04:40.203Z,101125.19
2022-09-24T18:07:07.830Z,101127.03
2022-09-24T18:09:58.750Z,101127.88
2022-09-24T18:12:31.995Z,101127.00
2022-09-24T18:14:59.634Z,101131.66
2022-09-24T18:17:38.671Z,101128.03
2022-09-24T18:20:09.078Z,101131.56
2022-09-24T18:22:43.891Z,101137.81
2022-09-24T18:25:13.821Z,101133.34
2022-09-24T18:27:48.702Z,101143.22
2022-09-24T18:30:21.513Z,101140.53
2022-09-24T18:32:55.074Z,101147.00
2022-09-24T18:35:23.114Z,101147.09
2022-09-24T18:37:50.774Z,101150.72
2022-09-24T18:40:20.419Z,101150.72
2022-09-24T18:42:50.433Z,101155.16
2022-09-24T18:45:36.264Z,101160.50
2022-09-24T18:48:06.443Z,101155.44
2022-09-24T18:50:35.839Z,101155.53
2022-09-24T18:53:04.779Z,101153.72
2022-09-24T18:55:33.933Z,101158.22
2022-09-24T18:58:05.662Z,101150.19
2022-09-24T19:00:51.363Z,101157.44
2022-09-24T19:03:25.219Z,101154.91
2022-09-24T19:05:59.440Z,101163.16
2022-09-24T19:08:32.221Z,101163.22
2022-09-24T19:11:09.278Z,101168.69
2022-09-24T19:13:38.582Z,101172.25
2022-09-24T19:16:12.644Z,101157.84
2022-09-24T19:18:46.387Z,101160.56
2022-09-24T19:21:15.569Z,101165.28
2022-09-24T19:23:46.255Z,101170.59
2022-09-24T19:26:21.853Z,101169.59
2022-09-24T19:28:55.923Z,101174.03
2022-09-24T19:31:31.701Z,101176.69
2022-09-24T19:34:02.835Z,101176.69
2022-09-24T19:36:30.854Z,101178.47
2022-09-24T19:38:59.025Z,101174.06
2022-09-24T19:41:29.084Z,101175.94
2022-09-24T19:44:08.217Z,101174.19
2022-09-24T19:46:40.971Z,101175.03
2022-09-24T19:49:12.592Z,101182.31
2022-09-24T19:51:40.411Z,101187.78
2022-09-24T19:54:09.548Z,101182.41
2022-09-24T19:56:38.899Z,101184.16
2022-09-24T19:59:07.895Z,101180.63
2022-09-24T20:01:35.695Z,101186.91
2022-09-24T20:04:05.731Z,101184.16
2022-09-24T20:06:34.980Z,101181.53
2022-09-24T20:09:02.940Z,101187.84
2022-09-24T20:11:32.543Z,101186.06
2022-09-24T20:14:02.592Z,101186.06
2022-09-24T20:16:32.414Z,101181.53
2022-09-24T20:19:00.333Z,101178.94
2022-09-24T20:21:31.334Z,101184.38
2022-09-24T20:24:01.153Z,101187.03
2022-09-24T20:26:46.165Z,101191.44
2022-09-24T20:29:16.136Z,101192.34
2022-09-24T20:31:51.749Z,101199.50
2022-09-24T20:34:20.100Z,101195.09
2022-09-24T20:36:47.829Z,101198.66
2022-09-24T20:39:15.631Z,101199.78
2022-09-24T20:41:43.844Z,101202.47
2022-09-24T20:44:11.563Z,101198.81
2022-09-24T20:46:40.682Z,101203.31
2022-09-24T20:49:08.403Z,101209.91
2022-09-24T20:51:37.163Z,101213.59
2022-09-24T20:54:04.993Z,101214.75
2022-09-24T20:56:32.611Z,101212.94
2022-09-24T20:59:00.908Z,101208.47
2022-09-24T21:01:28.782Z,101206.53
2022-09-24T21:03:58.239Z,101216.47
2022-09-24T21:06:26.007Z,101215.59
2022-09-24T21:08:53.954Z,101202.91
2022-09-24T21:11:25.110Z,101200.19
2022-09-24T21:13:54.676Z,101211.00
2022-09-24T21:16:24.959Z,101207.66
2022-09-24T21:18:54.331Z,101206.03
2022-09-24T21:21:25.079Z,101216.88
2022-09-24T21:23:54.569Z,101215.09
2022-09-24T21:26:23.873Z,101217.78
2022-09-24T21:28:53.260Z,101217.69
2022-09-24T21:31:23.623Z,101214.94
2022-09-24T21:33:53.526Z,101221.22
2022-09-24T21:36:24.148Z,101216.78
2022-09-24T21:38:55.608Z,101222.19
2022-09-24T21:41:23.581Z,101218.53
2022-09-24T21:43:53.373Z,101224.75
2022-09-24T21:46:21.029Z,101222.94
2022-09-24T21:48:49.017Z,101223.91
2022-09-24T21:51:21.247Z,101230.38
2022-09-24T21:53:50.924Z,101229.66
2022-09-24T21:56:19.654Z,101226.19
2022-09-24T21:58:47.764Z,101221.63
2022-09-24T22:01:18.207Z,101222.44
2022-09-24T22:03:46.644Z,101226.97
2022-09-24T22:06:14.647Z,101230.72
2022-09-24T22:08:43.231Z,101223.63
2022-09-24T22:11:13.517Z,101230.69
2022-09-24T22:13:41.897Z,101233.28
2022-09-24T22:16:11.590Z,101234.09
2022-09-24T22:18:39.911Z,101235.06
2022-09-24T22:21:10.097Z,101233.38
2022-09-24T22:23:38.208Z,101245.97
2022-09-24T22:26:06.926Z,101243.28
2022-09-24T22:28:37.834Z,101240.53
2022-09-24T22:31:08.299Z,101243.34
2022-09-24T22:33:53.648Z,101241.53
2022-09-24T22:36:21.925Z,101241.50
2022-09-24T22:38:52.802Z,101242.56
2022-09-24T22:41:20.496Z,101242.66
2022-09-24T22:43:49.519Z,101238.13
2022-09-24T22:46:17.569Z,101242.59
2022-09-24T22:48:47.183Z,101240.81
2022-09-24T22:51:15.542Z,101232.69
2022-09-24T22:53:43.606Z,101237.22
2022-09-24T22:56:12.766Z,101240.16
2022-09-24T22:58:43.370Z,101240.97
2022-09-24T23:01:15.031Z,101249.19
2022-09-24T23:03:44.135Z,101240.09
2022-09-24T23:06:12.704Z,101249.03
2022-09-24T23:08:41.059Z,101241.25
2022-09-24T23:11:10.471Z,101246.63
2022-09-24T23:13:39.386Z,101242.25
2022-09-24T23:16:09.690Z,101243.09
2022-09-24T23:18:39.008Z,101235.16
2022-09-24T23:21:07.786Z,101235.28
2022-09-24T23:23:35.541Z,101234.31
2022-09-24T23:26:07.058Z,101233.44
2022-09-24T23:28:36.493Z,101226.28
2022-09-24T23:31:04.674Z,101226.28
2022-09-24T23:33:33.239Z,101224.50
2022-09-24T23:36:03.248Z,101231.59
2022-09-24T23:38:31.353Z,101234.22
2022-09-24T23:41:00.686Z,101229.81
2022-09-24T23:43:28.743Z,101227.28
2022-09-24T23:45:56.839Z,101237.09
2022-09-24T23:48:25.649Z,101236.06
2022-09-24T23:50:53.469Z,101239.53
2022-09-24T23:53:22.762Z,101238.72
2022-09-24T23:55:51.390Z,101241.38
2022-09-24T23:58:20.941Z,101236.94
